Time;durP1;ratioP1;P1;durP2;ratioP2;P2;SDS_P1;SDS_P2;PMS_P1;PMS_P2;Temp;Humidity;BMP_temperature;BMP_pressure;BME280_temperature;BME280_humidity;BME280_pressure;Samples;Min_cycle;Max_cycle;Signal;HPM_P1;HPM_P2
2022/10/26 00:02:22;;;;;;;9.00;7.27;;;;;;;;;;4917649;29;20452;-70
2022/10/26 00:05:14;;;;;;;7.80;7.00;;;;;;;;;;4924214;29;20507;-71
2022/10/26 00:08:07;;;;;;;6.73;6.13;;;;;;;;;;4915967;29;20492;-71
2022/10/26 00:10:57;;;;;;;7.73;6.90;;;;;;;;;;4921647;28;20477;-70
2022/10/26 00:13:50;;;;;;;9.27;7.63;;;;;;;;;;4917586;29;20476;-71
2022/10/26 00:16:39;;;;;;;8.43;5.80;;;;;;;;;;4920923;29;20488;-71
2022/10/26 00:19:44;;;;;;;9.10;7.37;;;;;;;;;;4922006;29;20519;-71
2022/10/26 00:22:47;;;;;;;7.10;6.40;;;;;;;;;;4919034;29;21451;-71
2022/10/26 00:25:41;;;;;;;9.37;6.97;;;;;;;;;;4921431;29;20465;-71
2022/10/26 00:28:31;;;;;;;8.60;6.23;;;;;;;;;;4915100;29;20472;-71
2022/10/26 00:31:21;;;;;;;8.50;7.13;;;;;;;;;;4911855;28;20810;-71
2022/10/26 00:34:12;;;;;;;9.80;7.20;;;;;;;;;;4918915;29;20449;-71
2022/10/26 00:37:06;;;;;;;9.10;7.57;;;;;;;;;;4919006;29;20882;-73
2022/10/26 00:40:04;;;;;;;10.70;7.40;;;;;;;;;;4915373;29;20605;-71
2022/10/26 00:42:53;;;;;;;12.47;8.23;;;;;;;;;;4921265;29;20834;-71
2022/10/26 00:45:46;;;;;;;11.10;8.20;;;;;;;;;;4915898;29;20456;-71
2022/10/26 00:48:37;;;;;;;10.40;7.63;;;;;;;;;;4906837;29;20484;-71
2022/10/26 00:51:33;;;;;;;10.57;8.60;;;;;;;;;;4920805;29;20472;-71
2022/10/26 00:54:22;;;;;;;9.97;8.30;;;;;;;;;;4915011;29;20467;-71
2022/10/26 00:57:18;;;;;;;8.83;7.60;;;;;;;;;;4921165;29;20464;-71
2022/10/26 01:00:09;;;;;;;8.63;7.73;;;;;;;;;;4920131;29;20538;-71
2022/10/26 01:03:01;;;;;;;8.57;7.40;;;;;;;;;;4919794;29;20464;-72
2022/10/26 01:05:50;;;;;;;9.70;8.43;;;;;;;;;;4919202;29;20472;-70
2022/10/26 01:08:42;;;;;;;12.33;8.30;;;;;;;;;;4920753;29;20480;-71
2022/10/26 01:11:30;;;;;;;9.60;7.70;;;;;;;;;;4912188;29;20507;-71
2022/10/26 01:14:20;;;;;;;11.30;7.80;;;;;;;;;;4911090;29;20476;-71
2022/10/26 01:17:20;;;;;;;8.70;7.60;;;;;;;;;;4916332;29;21074;-72
2022/10/26 01:20:19;;;;;;;12.73;8.10;;;;;;;;;;4924335;29;20487;-71
2022/10/26 01:23:18;;;;;;;9.37;8.13;;;;;;;;;;4924426;29;20466;-71
2022/10/26 01:26:20;;;;;;;11.33;8.33;;;;;;;;;;4927103;29;20471;-70
2022/10/26 01:29:20;;;;;;;9.30;8.17;;;;;;;;;;4922318;29;20475;-71
2022/10/26 01:32:15;;;;;;;11.20;8.57;;;;;;;;;;4919175;29;20464;-71
2022/10/26 01:35:14;;;;;;;10.37;9.03;;;;;;;;;;4923269;29;20460;-70
2022/10/26 01:38:13;;;;;;;9.60;8.00;;;;;;;;;;4919734;29;20492;-69
2022/10/26 01:41:04;;;;;;;11.50;8.30;;;;;;;;;;4928175;29;20486;-69
2022/10/26 01:43:56;;;;;;;10.33;7.83;;;;;;;;;;4921528;29;21163;-69
2022/10/26 01:46:49;;;;;;;11.57;8.73;;;;;;;;;;4923555;29;20853;-68
2022/10/26 01:49:42;;;;;;;11.30;8.87;;;;;;;;;;4927113;29;21043;-69
2022/10/26 01:52:34;;;;;;;10.20;8.57;;;;;;;;;;4929350;29;20448;-69
2022/10/26 01:55:42;;;;;;;10.77;8.50;;;;;;;;;;4931304;29;21047;-70
2022/10/26 01:58:46;;;;;;;8.53;7.10;;;;;;;;;;4923723;29;20654;-68
2022/10/26 02:01:45;;;;;;;8.80;8.00;;;;;;;;;;4922351;29;20997;-69
2022/10/26 02:04:42;;;;;;;10.53;7.60;;;;;;;;;;4924702;29;20485;-69
2022/10/26 02:07:36;;;;;;;8.50;7.63;;;;;;;;;;4923615;29;21034;-68
2022/10/26 02:10:34;;;;;;;9.97;8.10;;;;;;;;;;4930677;29;20500;-68
2022/10/26 02:13:26;;;;;;;11.37;8.43;;;;;;;;;;4923290;29;20456;-68
2022/10/26 02:16:22;;;;;;;9.90;8.37;;;;;;;;;;4922785;29;21047;-68
2022/10/26 02:19:22;;;;;;;10.57;7.60;;;;;;;;;;4923054;29;20479;-68
2022/10/26 02:22:26;;;;;;;8.87;7.93;;;;;;;;;;4921054;29;20833;-68
2022/10/26 02:25:16;;;;;;;12.37;8.63;;;;;;;;;;4924729;29;20464;-68
2022/10/26 02:28:21;;;;;;;9.20;8.00;;;;;;;;;;4921032;29;20492;-68
2022/10/26 02:31:10;;;;;;;8.07;6.90;;;;;;;;;;4918323;29;20484;-68
2022/10/26 02:34:00;;;;;;;8.93;7.60;;;;;;;;;;4922708;29;20460;-68
2022/10/26 02:36:53;;;;;;;10.90;8.43;;;;;;;;;;4922827;29;20571;-68
2022/10/26 02:39:44;;;;;;;8.60;7.80;;;;;;;;;;4921249;29;20495;-68
2022/10/26 02:42:33;;;;;;;9.73;7.90;;;;;;;;;;4922709;29;20976;-67
2022/10/26 02:45:25;;;;;;;11.37;8.33;;;;;;;;;;4925664;29;20989;-68
2022/10/26 02:48:18;;;;;;;10.37;7.20;;;;;;;;;;4919757;29;20487;-69
2022/10/26 02:51:10;;;;;;;12.97;9.00;;;;;;;;;;4917226;29;21008;-69
2022/10/26 02:54:03;;;;;;;9.47;8.10;;;;;;;;;;4923017;29;20456;-69
2022/10/26 02:56:56;;;;;;;9.83;7.90;;;;;;;;;;4915168;29;20464;-69
2022/10/26 02:59:46;;;;;;;8.77;7.93;;;;;;;;;;4917061;29;20480;-69
2022/10/26 03:02:40;;;;;;;9.37;8.00;;;;;;;;;;4914241;29;20891;-69
2022/10/26 03:05:33;;;;;;;10.20;8.47;;;;;;;;;;4917200;29;20559;-69
2022/10/26 03:08:28;;;;;;;9.70;8.80;;;;;;;;;;4916761;29;20499;-68
2022/10/26 03:11:21;;;;;;;11.53;8.53;;;;;;;;;;4921161;29;20489;-69
2022/10/26 03:14:23;;;;;;;11.20;9.10;;;;;;;;;;4913879;29;20456;-69
2022/10/26 03:17:16;;;;;;;11.63;8.07;;;;;;;;;;4918298;29;20870;-68
2022/10/26 03:20:07;;;;;;;11.43;9.10;;;;;;;;;;4924930;29;21908;-69
2022/10/26 03:22:58;;;;;;;10.00;8.13;;;;;;;;;;4923974;29;20484;-68
2022/10/26 03:25:48;;;;;;;11.23;8.27;;;;;;;;;;4926093;29;20481;-69
2022/10/26 03:28:37;;;;;;;12.20;8.87;;;;;;;;;;4918667;29;20499;-69
2022/10/26 03:31:30;;;;;;;13.00;8.70;;;;;;;;;;4917008;29;20531;-68
2022/10/26 03:34:19;;;;;;;12.13;9.10;;;;;;;;;;4913262;29;20465;-69
2022/10/26 03:37:12;;;;;;;10.60;8.60;;;;;;;;;;4924616;29;20453;-68
2022/10/26 03:40:02;;;;;;;10.40;8.47;;;;;;;;;;4921611;29;20569;-68
2022/10/26 03:42:51;;;;;;;9.63;8.63;;;;;;;;;;4923729;29;20456;-69
2022/10/26 03:45:40;;;;;;;9.60;8.03;;;;;;;;;;4923059;29;20461;-69
2022/10/26 03:48:31;;;;;;;9.47;8.47;;;;;;;;;;4921011;29;20484;-68
2022/10/26 03:51:19;;;;;;;12.03;9.30;;;;;;;;;;4923875;29;20476;-69
2022/10/26 03:54:12;;;;;;;11.13;8.40;;;;;;;;;;4922667;29;20474;-69
2022/10/26 03:57:02;;;;;;;14.90;10.17;;;;;;;;;;4918282;29;20996;-69
2022/10/26 03:59:51;;;;;;;11.00;8.80;;;;;;;;;;4918398;28;20496;-69
2022/10/26 04:02:45;;;;;;;11.13;9.67;;;;;;;;;;4926204;29;20448;-69
2022/10/26 04:05:35;;;;;;;11.40;9.33;;;;;;;;;;4918737;29;20461;-69
2022/10/26 04:08:26;;;;;;;12.10;9.40;;;;;;;;;;4924403;29;20492;-69
2022/10/26 04:11:14;;;;;;;12.60;9.80;;;;;;;;;;4920439;29;20856;-69
2022/10/26 04:14:04;;;;;;;13.67;9.67;;;;;;;;;;4926177;29;20460;-69
2022/10/26 04:16:52;;;;;;;12.20;9.70;;;;;;;;;;4926491;29;20467;-69
2022/10/26 04:19:41;;;;;;;14.50;10.30;;;;;;;;;;4920436;29;21216;-69
2022/10/26 04:22:36;;;;;;;11.70;10.03;;;;;;;;;;4923827;29;20465;-68
2022/10/26 04:25:26;;;;;;;11.30;9.47;;;;;;;;;;4919975;29;20460;-68
2022/10/26 04:28:20;;;;;;;13.30;10.57;;;;;;;;;;4921191;29;21009;-69
2022/10/26 04:31:09;;;;;;;12.83;10.80;;;;;;;;;;4918111;29;20469;-69
2022/10/26 04:34:11;;;;;;;15.90;11.90;;;;;;;;;;4918343;29;20468;-69
2022/10/26 04:37:08;;;;;;;15.10;10.90;;;;;;;;;;4922021;29;20475;-69
2022/10/26 04:40:01;;;;;;;13.77;11.57;;;;;;;;;;4915272;29;20497;-69
2022/10/26 04:42:51;;;;;;;20.27;11.57;;;;;;;;;;4920228;29;20449;-69
2022/10/26 04:45:50;;;;;;;14.83;12.20;;;;;;;;;;4916315;29;20456;-69
2022/10/26 04:48:47;;;;;;;15.27;11.30;;;;;;;;;;4919131;29;20855;-68
2022/10/26 04:51:35;;;;;;;16.03;12.07;;;;;;;;;;4915314;29;20481;-69
2022/10/26 04:54:28;;;;;;;15.07;11.50;;;;;;;;;;4918492;29;20844;-68
2022/10/26 04:57:31;;;;;;;19.90;11.87;;;;;;;;;;4918829;29;20472;-68
2022/10/26 05:00:23;;;;;;;17.30;11.87;;;;;;;;;;4910376;29;21409;-68
2022/10/26 05:03:11;;;;;;;16.73;12.13;;;;;;;;;;4917957;29;21010;-68
2022/10/26 05:06:03;;;;;;;16.53;12.70;;;;;;;;;;4915119;29;20464;-68
2022/10/26 05:09:00;;;;;;;14.00;11.47;;;;;;;;;;4912675;29;21327;-68
2022/10/26 05:11:48;;;;;;;15.60;11.70;;;;;;;;;;4918238;29;21760;-68
2022/10/26 05:14:40;;;;;;;14.90;12.00;;;;;;;;;;4918015;29;20460;-68
2022/10/26 05:17:29;;;;;;;17.57;12.83;;;;;;;;;;4914462;29;21251;-68
2022/10/26 05:20:27;;;;;;;16.67;11.90;;;;;;;;;;4908983;29;20473;-67
2022/10/26 05:23:18;;;;;;;17.70;12.70;;;;;;;;;;4912995;29;20469;-68
2022/10/26 05:26:10;;;;;;;18.73;13.10;;;;;;;;;;4919796;29;20457;-68
2022/10/26 05:29:04;;;;;;;16.03;12.83;;;;;;;;;;4921144;29;20502;-68
2022/10/26 05:32:00;;;;;;;18.60;13.37;;;;;;;;;;4923942;29;20463;-68
2022/10/26 05:34:50;;;;;;;18.70;14.17;;;;;;;;;;4923653;29;20839;-68
2022/10/26 05:37:38;;;;;;;21.63;14.30;;;;;;;;;;4926673;29;20456;-68
2022/10/26 05:40:27;;;;;;;19.17;14.23;;;;;;;;;;4922737;29;20477;-67
2022/10/26 05:43:18;;;;;;;21.07;13.77;;;;;;;;;;4926143;29;20563;-67
2022/10/26 05:46:08;;;;;;;19.20;13.93;;;;;;;;;;4915763;29;20464;-69
2022/10/26 05:48:58;;;;;;;20.60;14.50;;;;;;;;;;4923297;29;20481;-68
2022/10/26 05:51:50;;;;;;;20.80;14.47;;;;;;;;;;4927364;29;20985;-69
2022/10/26 05:54:38;;;;;;;23.97;15.90;;;;;;;;;;4925570;29;20461;-69
2022/10/26 05:57:28;;;;;;;24.73;15.83;;;;;;;;;;4922283;29;20457;-69
2022/10/26 06:00:17;;;;;;;28.90;16.90;;;;;;;;;;4923538;29;20488;-69
2022/10/26 06:03:15;;;;;;;19.20;15.57;;;;;;;;;;4921366;29;20459;-68
2022/10/26 06:06:05;;;;;;;23.07;16.10;;;;;;;;;;4902853;29;20464;-69
2022/10/26 06:08:55;;;;;;;19.13;14.70;;;;;;;;;;4919408;29;20476;-68
2022/10/26 06:11:46;;;;;;;21.90;15.60;;;;;;;;;;4913595;29;21226;-68
2022/10/26 06:14:35;;;;;;;21.80;15.53;;;;;;;;;;4922402;29;20464;-69
2022/10/26 06:17:33;;;;;;;20.97;16.00;;;;;;;;;;4921057;29;20969;-68
2022/10/26 06:20:32;;;;;;;24.27;16.47;;;;;;;;;;4925299;29;20494;-69
2022/10/26 06:23:39;;;;;;;21.33;16.40;;;;;;;;;;4922225;29;20827;-69
2022/10/26 06:26:31;;;;;;;23.30;16.23;;;;;;;;;;4924041;29;21000;-67
2022/10/26 06:29:23;;;;;;;21.73;15.73;;;;;;;;;;4925436;29;20491;-68
2022/10/26 06:32:12;;;;;;;21.70;15.03;;;;;;;;;;4926665;29;20996;-68
2022/10/26 06:35:09;;;;;;;20.70;15.13;;;;;;;;;;4926474;29;20464;-68
2022/10/26 06:38:00;;;;;;;28.87;15.30;;;;;;;;;;4923111;29;20481;-69
2022/10/26 06:40:51;;;;;;;20.17;14.73;;;;;;;;;;4921782;29;20635;-68
2022/10/26 06:43:40;;;;;;;20.13;13.27;;;;;;;;;;4927226;29;20460;-67
2022/10/26 06:46:33;;;;;;;17.63;13.73;;;;;;;;;;4922394;29;20464;-68
2022/10/26 06:49:23;;;;;;;19.77;14.50;;;;;;;;;;4926575;29;20480;-69
2022/10/26 06:52:16;;;;;;;19.70;14.13;;;;;;;;;;4924007;29;20694;-68
2022/10/26 06:55:05;;;;;;;17.07;13.07;;;;;;;;;;4927994;29;20467;-69
2022/10/26 06:57:55;;;;;;;17.13;13.20;;;;;;;;;;4926995;29;20492;-70
2022/10/26 07:00:44;;;;;;;17.90;13.10;;;;;;;;;;4921316;29;20984;-70
2022/10/26 07:03:33;;;;;;;17.53;12.97;;;;;;;;;;4926784;29;20852;-68
2022/10/26 07:06:21;;;;;;;24.10;13.87;;;;;;;;;;4926230;29;20449;-69
2022/10/26 07:09:22;;;;;;;22.37;14.20;;;;;;;;;;4925478;29;20477;-69
2022/10/26 07:12:10;;;;;;;20.87;14.73;;;;;;;;;;4927141;29;20449;-70
2022/10/26 07:15:00;;;;;;;17.57;12.47;;;;;;;;;;4927337;29;20483;-70
2022/10/26 07:17:51;;;;;;;19.20;14.27;;;;;;;;;;4927275;29;21289;-69
2022/10/26 07:20:40;;;;;;;20.20;13.77;;;;;;;;;;4927397;29;20571;-70
2022/10/26 07:23:29;;;;;;;19.30;14.50;;;;;;;;;;4923658;29;20936;-70
2022/10/26 07:26:24;;;;;;;18.00;14.10;;;;;;;;;;4920963;29;20551;-72
2022/10/26 07:29:13;;;;;;;19.47;14.20;;;;;;;;;;4925120;29;20492;-71
2022/10/26 07:32:03;;;;;;;18.37;13.77;;;;;;;;;;4919117;29;21422;-67
2022/10/26 07:34:51;;;;;;;17.27;14.00;;;;;;;;;;4919209;29;20551;-67
2022/10/26 07:37:40;;;;;;;20.20;13.70;;;;;;;;;;4923362;29;20449;-70
2022/10/26 07:40:29;;;;;;;19.90;13.13;;;;;;;;;;4922409;29;20492;-70
2022/10/26 07:43:17;;;;;;;17.90;12.30;;;;;;;;;;4927513;29;20506;-69
2022/10/26 07:46:06;;;;;;;16.47;12.87;;;;;;;;;;4928700;29;20461;-68
2022/10/26 07:48:56;;;;;;;18.03;12.80;;;;;;;;;;4926602;29;22668;-67
2022/10/26 07:51:44;;;;;;;16.37;12.60;;;;;;;;;;4931359;29;20460;-68
2022/10/26 07:54:33;;;;;;;18.93;14.20;;;;;;;;;;4925371;29;20475;-69
2022/10/26 07:57:22;;;;;;;16.63;12.97;;;;;;;;;;4926234;29;20469;-69
2022/10/26 08:00:11;;;;;;;17.40;13.37;;;;;;;;;;4928492;29;20496;-68
2022/10/26 08:03:01;;;;;;;19.93;13.50;;;;;;;;;;4926662;29;20964;-68
2022/10/26 08:05:54;;;;;;;17.10;13.03;;;;;;;;;;4927562;29;20809;-68
2022/10/26 08:08:43;;;;;;;13.27;11.87;;;;;;;;;;4927499;29;20471;-69
2022/10/26 08:11:35;;;;;;;16.17;13.37;;;;;;;;;;4921733;29;20838;-71
2022/10/26 08:14:26;;;;;;;15.70;13.57;;;;;;;;;;4929737;29;20448;-70
2022/10/26 08:17:14;;;;;;;16.63;13.33;;;;;;;;;;4927781;29;20469;-68
2022/10/26 08:20:03;;;;;;;16.73;12.90;;;;;;;;;;4921795;29;20491;-69
2022/10/26 08:22:53;;;;;;;17.10;12.77;;;;;;;;;;4930256;29;20456;-70
2022/10/26 08:25:43;;;;;;;15.87;12.37;;;;;;;;;;4925481;29;20449;-70
2022/10/26 08:28:32;;;;;;;18.23;13.07;;;;;;;;;;4929199;29;20464;-68
2022/10/26 08:31:20;;;;;;;16.37;13.17;;;;;;;;;;4926030;29;20493;-70
2022/10/26 08:34:09;;;;;;;17.90;13.30;;;;;;;;;;4924211;29;20821;-69
2022/10/26 08:36:57;;;;;;;14.00;11.10;;;;;;;;;;4927461;29;20864;-69
2022/10/26 08:39:47;;;;;;;15.17;12.23;;;;;;;;;;4925238;29;20487;-68
2022/10/26 08:42:44;;;;;;;12.23;10.43;;;;;;;;;;4927973;29;21019;-69
2022/10/26 08:45:34;;;;;;;16.67;11.37;;;;;;;;;;4925806;29;20811;-69
2022/10/26 08:48:26;;;;;;;12.70;10.87;;;;;;;;;;4927819;29;20562;-69
2022/10/26 08:51:17;;;;;;;14.83;11.20;;;;;;;;;;4927459;29;20492;-69
2022/10/26 08:54:12;;;;;;;16.17;12.57;;;;;;;;;;4928829;29;20452;-69
2022/10/26 08:57:05;;;;;;;17.03;12.63;;;;;;;;;;4923433;29;20477;-70
2022/10/26 08:59:58;;;;;;;13.53;12.00;;;;;;;;;;4928112;29;20484;-69
2022/10/26 09:02:50;;;;;;;14.20;12.43;;;;;;;;;;4928863;29;20995;-69
2022/10/26 09:05:44;;;;;;;15.20;11.23;;;;;;;;;;4927259;29;20479;-69
2022/10/26 09:08:38;;;;;;;20.10;11.13;;;;;;;;;;4926882;29;20481;-69
2022/10/26 09:11:35;;;;;;;13.97;11.90;;;;;;;;;;4927729;29;21034;-69
2022/10/26 09:14:35;;;;;;;13.20;10.20;;;;;;;;;;4927450;29;20460;-69
2022/10/26 09:17:29;;;;;;;17.60;10.37;;;;;;;;;;4925495;29;20470;-69
2022/10/26 09:20:25;;;;;;;11.80;10.57;;;;;;;;;;4924850;29;20480;-69
2022/10/26 09:23:21;;;;;;;12.40;9.70;;;;;;;;;;4928558;29;20461;-69
2022/10/26 09:26:13;;;;;;;11.70;9.73;;;;;;;;;;4925711;29;20478;-69
2022/10/26 09:29:04;;;;;;;10.40;9.30;;;;;;;;;;4917405;29;20472;-69
2022/10/26 09:31:55;;;;;;;13.00;8.90;;;;;;;;;;4923768;29;20488;-68
2022/10/26 09:34:46;;;;;;;13.00;8.90;;;;;;;;;;4925754;29;20460;-69
2022/10/26 09:37:37;;;;;;;9.50;8.60;;;;;;;;;;4922302;29;20461;-68
2022/10/26 09:40:28;;;;;;;8.93;8.07;;;;;;;;;;4922519;29;20580;-69
2022/10/26 09:43:19;;;;;;;10.47;8.23;;;;;;;;;;4925833;29;20457;-68
2022/10/26 09:46:10;;;;;;;11.03;7.93;;;;;;;;;;4923699;29;20452;-70
2022/10/26 09:49:02;;;;;;;7.90;7.13;;;;;;;;;;4915836;29;20503;-68
2022/10/26 09:51:53;;;;;;;8.10;7.00;;;;;;;;;;4923516;29;20860;-69
2022/10/26 09:54:42;;;;;;;8.40;6.80;;;;;;;;;;4924819;29;20471;-69
2022/10/26 09:57:30;;;;;;;13.53;6.67;;;;;;;;;;4930367;29;20599;-68
2022/10/26 10:00:25;;;;;;;9.97;7.20;;;;;;;;;;4929054;29;20480;-69
2022/10/26 10:03:18;;;;;;;7.00;6.30;;;;;;;;;;4927117;29;20464;-68
2022/10/26 10:06:19;;;;;;;10.53;6.40;;;;;;;;;;4926508;29;20464;-68
2022/10/26 10:09:09;;;;;;;8.00;6.03;;;;;;;;;;4929084;29;20830;-68
2022/10/26 10:12:01;;;;;;;9.17;6.70;;;;;;;;;;4927947;29;21003;-69
2022/10/26 10:15:00;;;;;;;7.03;6.33;;;;;;;;;;4928754;29;20465;-69
2022/10/26 10:17:49;;;;;;;7.47;6.80;;;;;;;;;;4927889;29;20466;-68
2022/10/26 10:20:40;;;;;;;9.93;7.10;;;;;;;;;;4927908;29;20490;-69
2022/10/26 10:23:32;;;;;;;10.40;6.00;;;;;;;;;;4929200;29;20851;-70
2022/10/26 10:26:21;;;;;;;9.03;6.33;;;;;;;;;;4924783;29;20763;-68
2022/10/26 10:29:16;;;;;;;6.33;5.40;;;;;;;;;;4927371;29;20484;-69
2022/10/26 10:32:05;;;;;;;6.57;5.97;;;;;;;;;;4931088;29;20476;-68
2022/10/26 10:34:55;;;;;;;6.77;6.03;;;;;;;;;;4926455;29;20456;-69
2022/10/26 10:37:45;;;;;;;6.03;5.50;;;;;;;;;;4929557;29;20969;-68
2022/10/26 10:40:35;;;;;;;8.27;6.30;;;;;;;;;;4923063;29;20626;-69
2022/10/26 10:43:24;;;;;;;5.83;5.33;;;;;;;;;;4922981;29;20449;-69
2022/10/26 10:46:18;;;;;;;6.60;5.90;;;;;;;;;;4926388;29;20988;-68
2022/10/26 10:49:07;;;;;;;8.23;6.00;;;;;;;;;;4924763;29;20550;-68
2022/10/26 10:51:56;;;;;;;7.00;6.17;;;;;;;;;;4927917;29;20488;-68
2022/10/26 10:54:48;;;;;;;9.27;6.23;;;;;;;;;;4925387;29;20460;-69
2022/10/26 10:57:44;;;;;;;7.33;5.10;;;;;;;;;;4930459;29;20448;-69
2022/10/26 11:00:36;;;;;;;6.60;4.77;;;;;;;;;;4925261;29;20846;-68
2022/10/26 11:03:38;;;;;;;7.93;5.03;;;;;;;;;;4922655;29;20472;-69
2022/10/26 11:06:28;;;;;;;5.53;4.97;;;;;;;;;;4925592;29;20455;-68
2022/10/26 11:09:18;;;;;;;6.13;4.80;;;;;;;;;;4929536;29;20484;-70
2022/10/26 11:12:09;;;;;;;8.10;5.63;;;;;;;;;;4928686;29;20714;-68
2022/10/26 11:15:01;;;;;;;6.93;5.90;;;;;;;;;;4926978;29;20472;-70
2022/10/26 11:17:53;;;;;;;6.50;5.40;;;;;;;;;;4926966;29;20942;-70
2022/10/26 11:20:46;;;;;;;5.77;5.20;;;;;;;;;;4926908;29;20476;-71
2022/10/26 11:23:38;;;;;;;6.97;4.97;;;;;;;;;;4924131;29;20488;-71
2022/10/26 11:26:30;;;;;;;6.20;5.37;;;;;;;;;;4927798;29;20465;-69
2022/10/26 11:29:22;;;;;;;5.87;5.27;;;;;;;;;;4910337;29;20484;-69
2022/10/26 11:32:16;;;;;;;6.57;5.90;;;;;;;;;;4919373;29;20468;-69
2022/10/26 11:35:10;;;;;;;8.40;5.30;;;;;;;;;;4919890;29;20452;-70
2022/10/26 11:38:03;;;;;;;7.13;5.03;;;;;;;;;;4919283;29;20472;-70
2022/10/26 11:40:55;;;;;;;5.00;3.70;;;;;;;;;;4926095;29;20523;-71
2022/10/26 11:43:45;;;;;;;4.40;3.90;;;;;;;;;;4911965;29;20457;-71
2022/10/26 11:46:37;;;;;;;4.90;4.50;;;;;;;;;;4927018;29;20468;-69
2022/10/26 11:49:31;;;;;;;4.20;3.80;;;;;;;;;;4924469;29;20481;-68
2022/10/26 11:52:22;;;;;;;4.73;4.33;;;;;;;;;;4929816;29;20479;-70
2022/10/26 11:55:11;;;;;;;4.90;4.50;;;;;;;;;;4926135;29;20477;-69
2022/10/26 11:58:01;;;;;;;4.27;3.90;;;;;;;;;;4926424;29;21027;-71
2022/10/26 12:00:52;;;;;;;6.43;4.50;;;;;;;;;;4920976;29;20483;-71
2022/10/26 12:03:44;;;;;;;4.37;3.20;;;;;;;;;;4925808;29;20467;-71
2022/10/26 12:06:34;;;;;;;3.50;3.15;;;;;;;;;;4921838;29;20455;-71
2022/10/26 12:09:26;;;;;;;3.63;3.33;;;;;;;;;;4922606;29;20726;-70
2022/10/26 12:12:20;;;;;;;4.25;3.85;;;;;;;;;;4912494;29;20239;-72
2022/10/26 12:15:17;;;;;;;4.05;3.72;;;;;;;;;;4915047;29;20575;-72
2022/10/26 12:18:12;;;;;;;3.28;3.00;;;;;;;;;;4922044;29;20318;-72
2022/10/26 12:21:05;;;;;;;5.05;4.40;;;;;;;;;;4914317;29;20251;-72
2022/10/26 12:23:56;;;;;;;4.53;2.95;;;;;;;;;;4922249;29;20204;-71
2022/10/26 12:26:54;;;;;;;3.58;3.08;;;;;;;;;;4925291;29;20215;-72
2022/10/26 12:29:48;;;;;;;3.95;3.22;;;;;;;;;;4925403;29;20557;-73
2022/10/26 12:32:51;;;;;;;3.35;3.15;;;;;;;;;;4922303;29;20224;-71
2022/10/26 12:35:43;;;;;;;3.90;2.90;;;;;;;;;;4926414;29;20253;-73
2022/10/26 12:38:50;;;;;;;3.20;3.00;;;;;;;;;;4919593;29;20367;-71
2022/10/26 12:41:40;;;;;;;3.72;3.30;;;;;;;;;;4920702;29;20238;-71
2022/10/26 12:44:32;;;;;;;2.85;2.65;;;;;;;;;;4917688;29;20243;-72
2022/10/26 12:47:36;;;;;;;3.22;3.03;;;;;;;;;;4924774;29;21431;-72
2022/10/26 12:50:25;;;;;;;2.83;2.60;;;;;;;;;;4918830;29;20232;-73
2022/10/26 12:53:16;;;;;;;2.60;2.40;;;;;;;;;;4924800;29;20788;-72
2022/10/26 12:56:05;;;;;;;2.78;2.58;;;;;;;;;;4928838;29;20208;-73
2022/10/26 12:59:03;;;;;;;3.70;2.45;;;;;;;;;;4921200;29;20239;-72
2022/10/26 13:02:05;;;;;;;3.08;2.53;;;;;;;;;;4920963;29;20207;-73
2022/10/26 13:05:11;;;;;;;4.68;2.65;;;;;;;;;;4916853;29;20212;-72
2022/10/26 13:08:03;;;;;;;5.63;2.97;;;;;;;;;;4921708;29;20223;-72
2022/10/26 13:11:02;;;;;;;2.53;2.33;;;;;;;;;;4922483;29;20479;-72
2022/10/26 13:13:54;;;;;;;3.47;2.30;;;;;;;;;;4924007;29;20495;-74
2022/10/26 13:16:46;;;;;;;2.50;2.30;;;;;;;;;;4915376;29;20457;-73
2022/10/26 13:19:40;;;;;;;3.33;2.33;;;;;;;;;;4911154;29;20886;-71
2022/10/26 13:22:29;;;;;;;5.03;2.63;;;;;;;;;;4918153;29;20468;-72
2022/10/26 13:25:21;;;;;;;3.10;2.50;;;;;;;;;;4926392;29;20481;-70
2022/10/26 13:28:25;;;;;;;5.27;2.90;;;;;;;;;;4924732;29;20967;-71
2022/10/26 13:31:18;;;;;;;2.63;2.37;;;;;;;;;;4922732;29;20483;-71
2022/10/26 13:34:16;;;;;;;3.03;2.63;;;;;;;;;;4923205;29;20480;-71
2022/10/26 13:37:07;;;;;;;4.03;2.90;;;;;;;;;;4922773;29;20465;-71
2022/10/26 13:39:58;;;;;;;4.03;2.60;;;;;;;;;;4916784;29;20867;-71
2022/10/26 13:42:48;;;;;;;4.17;2.33;;;;;;;;;;4920983;29;20452;-71
2022/10/26 13:45:42;;;;;;;2.70;2.50;;;;;;;;;;4921929;29;20966;-72
2022/10/26 13:48:34;;;;;;;2.80;2.60;;;;;;;;;;4903703;29;20491;-70
2022/10/26 13:51:25;;;;;;;4.70;2.80;;;;;;;;;;4905357;29;22472;-70
2022/10/26 13:54:20;;;;;;;3.57;3.03;;;;;;;;;;4912568;29;20473;-70
2022/10/26 13:57:17;;;;;;;4.23;2.60;;;;;;;;;;4908809;29;21050;-71
2022/10/26 14:00:09;;;;;;;4.70;2.93;;;;;;;;;;4920290;29;20488;-70
2022/10/26 14:02:57;;;;;;;3.50;2.50;;;;;;;;;;4914697;29;20515;-72
2022/10/26 14:05:48;;;;;;;3.87;2.50;;;;;;;;;;4908449;29;20465;-70
2022/10/26 14:08:41;;;;;;;4.20;3.00;;;;;;;;;;4905689;29;20500;-71
2022/10/26 14:11:34;;;;;;;4.07;2.50;;;;;;;;;;4917924;29;20890;-71
2022/10/26 14:14:24;;;;;;;3.83;2.70;;;;;;;;;;4912769;29;20604;-71
2022/10/26 14:17:19;;;;;;;4.17;3.20;;;;;;;;;;4921961;29;20464;-71
2022/10/26 14:20:17;;;;;;;3.73;3.17;;;;;;;;;;4923812;29;20502;-71
2022/10/26 14:23:05;;;;;;;3.37;2.87;;;;;;;;;;4922593;29;20515;-71
2022/10/26 14:25:58;;;;;;;3.50;2.70;;;;;;;;;;4925972;29;20456;-70
2022/10/26 14:28:49;;;;;;;3.20;2.50;;;;;;;;;;4925090;29;20480;-69
2022/10/26 14:31:37;;;;;;;4.57;2.80;;;;;;;;;;4923313;29;20563;-70
2022/10/26 14:34:26;;;;;;;4.60;3.57;;;;;;;;;;4926942;29;20484;-69
2022/10/26 14:37:18;;;;;;;3.60;2.80;;;;;;;;;;4927194;29;20452;-69
2022/10/26 14:40:07;;;;;;;3.60;3.30;;;;;;;;;;4924955;29;20492;-69
2022/10/26 14:42:58;;;;;;;9.23;2.97;;;;;;;;;;4926794;29;20452;-69
2022/10/26 14:45:48;;;;;;;3.10;2.80;;;;;;;;;;4916914;29;20458;-69
2022/10/26 14:48:41;;;;;;;2.93;2.60;;;;;;;;;;4919055;29;20486;-68
2022/10/26 14:51:30;;;;;;;4.73;2.70;;;;;;;;;;4921132;29;20571;-68
2022/10/26 14:54:20;;;;;;;2.83;2.63;;;;;;;;;;4921668;29;20849;-70
2022/10/26 14:57:29;;;;;;;2.80;2.50;;;;;;;;;;4925289;29;20698;-70
2022/10/26 15:00:20;;;;;;;3.00;2.70;;;;;;;;;;4918438;29;20492;-68
2022/10/26 15:03:14;;;;;;;2.47;2.27;;;;;;;;;;4924042;29;20457;-69
2022/10/26 15:06:18;;;;;;;2.93;2.63;;;;;;;;;;4926786;29;20468;-70
2022/10/26 15:09:06;;;;;;;4.17;2.50;;;;;;;;;;4924557;29;20480;-70
2022/10/26 15:11:55;;;;;;;3.03;2.80;;;;;;;;;;4916319;29;20465;-70
2022/10/26 15:14:44;;;;;;;4.33;2.60;;;;;;;;;;4921593;29;20869;-70
2022/10/26 15:17:37;;;;;;;3.00;2.70;;;;;;;;;;4905014;29;20549;-69
2022/10/26 15:20:27;;;;;;;3.30;2.80;;;;;;;;;;4918888;29;20492;-70
2022/10/26 15:23:15;;;;;;;2.87;2.67;;;;;;;;;;4902656;29;20453;-69
2022/10/26 15:26:05;;;;;;;3.30;3.00;;;;;;;;;;4921090;29;20519;-70
2022/10/26 15:28:54;;;;;;;5.50;3.03;;;;;;;;;;4900730;29;20499;-69
2022/10/26 15:31:43;;;;;;;4.33;2.70;;;;;;;;;;4905772;29;20492;-70
2022/10/26 15:34:33;;;;;;;2.87;2.57;;;;;;;;;;4903437;29;20618;-70
2022/10/26 15:37:21;;;;;;;3.27;2.90;;;;;;;;;;4919637;29;20445;-70
2022/10/26 15:40:10;;;;;;;6.00;3.07;;;;;;;;;;4917470;29;20496;-70
2022/10/26 15:43:00;;;;;;;3.20;2.83;;;;;;;;;;4909862;29;20460;-69
2022/10/26 15:45:50;;;;;;;5.00;3.37;;;;;;;;;;4905074;29;20503;-69
2022/10/26 15:48:39;;;;;;;4.40;2.80;;;;;;;;;;4913391;29;21124;-69
2022/10/26 15:51:29;;;;;;;5.10;3.20;;;;;;;;;;4924232;29;21164;-69
2022/10/26 15:54:18;;;;;;;4.13;2.80;;;;;;;;;;4928285;29;20992;-70
2022/10/26 15:57:07;;;;;;;2.87;2.63;;;;;;;;;;4921099;29;20460;-70
2022/10/26 15:59:55;;;;;;;3.13;2.83;;;;;;;;;;4927322;28;20488;-70
2022/10/26 16:02:44;;;;;;;2.87;2.60;;;;;;;;;;4927285;29;20464;-70
2022/10/26 16:05:33;;;;;;;3.83;2.97;;;;;;;;;;4926029;29;20461;-71
2022/10/26 16:08:23;;;;;;;5.40;2.83;;;;;;;;;;4927484;29;20580;-70
2022/10/26 16:11:11;;;;;;;3.07;2.70;;;;;;;;;;4927921;29;20476;-70
2022/10/26 16:14:00;;;;;;;5.27;3.10;;;;;;;;;;4914020;29;20492;-70
2022/10/26 16:16:51;;;;;;;5.10;2.90;;;;;;;;;;4919261;29;21323;-70
2022/10/26 16:19:41;;;;;;;4.00;3.13;;;;;;;;;;4902237;29;20488;-71
2022/10/26 16:22:29;;;;;;;3.00;2.70;;;;;;;;;;4912641;29;20472;-70
2022/10/26 16:25:24;;;;;;;2.93;2.70;;;;;;;;;;4903854;29;20456;-70
2022/10/26 16:28:16;;;;;;;4.77;2.80;;;;;;;;;;4908600;29;20519;-70
2022/10/26 16:31:05;;;;;;;3.13;2.83;;;;;;;;;;4910445;29;20484;-71
2022/10/26 16:33:54;;;;;;;3.90;3.00;;;;;;;;;;4911168;29;20481;-69
2022/10/26 16:36:47;;;;;;;3.60;3.30;;;;;;;;;;4910848;29;20457;-70
2022/10/26 16:39:36;;;;;;;4.00;2.90;;;;;;;;;;4907053;28;20620;-71
2022/10/26 16:42:27;;;;;;;5.00;3.40;;;;;;;;;;4906216;29;20468;-70
2022/10/26 16:45:15;;;;;;;4.57;3.27;;;;;;;;;;4908237;29;21513;-70
2022/10/26 16:48:08;;;;;;;3.73;3.30;;;;;;;;;;4918615;29;20494;-69
2022/10/26 16:50:56;;;;;;;3.03;2.80;;;;;;;;;;4925672;29;20487;-69
2022/10/26 16:53:47;;;;;;;3.80;3.50;;;;;;;;;;4914831;29;20472;-70
2022/10/26 16:56:36;;;;;;;7.00;3.10;;;;;;;;;;4917000;29;20457;-70
2022/10/26 16:59:25;;;;;;;4.97;3.20;;;;;;;;;;4923779;29;20487;-69
2022/10/26 17:02:14;;;;;;;4.13;3.10;;;;;;;;;;4926550;29;20464;-70